Zephyr Cove, NV

11:09 PM PDT on July 23, 2016 (GMT -0700)
MesoWest | | Change Station

Elev 6304 ft 38.97 °N, 119.93 °W | Updated 48 minutes ago

Clear
Clear
59.0 °F
Feels Like 59.0 °F
N
0.0
Wind Variable Wind from North
Gusts 0.0 mph

Today
High -- | Low -- °F
--% Chance of Precip.
Yesterday
High -- | Low -- °F
Precip. -- in
Pressure 30.08 in
Visibility 10.0 miles
Clouds Clear
Dew Point 31.0 °F
Humidity 34%
Rainfall in
Snow Depth Not available.
5:53 AM 8:18 PM
Waning Gibbous, 79% visible
METAR KTVL 240553Z AUTO 18003KT 10SM CLR 12/01 A3024 RMK AO2 SLP184 T01220006 10289 20117 50008
Pressure 30.08 in
Visibility 10.0 miles
Clouds Clear
Dew Point 31.0 °F
Humidity 34%
Rainfall in
Snow Depth Not available.
5:53 AM 8:18 PM
Waning Gibbous, 79% visible
METAR KTVL 240553Z AUTO 18003KT 10SM CLR 12/01 A3024 RMK AO2 SLP184 T01220006 10289 20117 50008

10-Day Weather Forecast

Almanac

Astronomy

Jul. 23, 2016 Rise Set
Actual Time
Civil Twilight
Nautical Twilight
Astronomical Twilight
Moon
Length of Visible Light
Length of Day
Tomorrow will be .
, % of the Moon is Illuminated

Today's Extremes

State Highs State Lows

Community

WunderPhotos

Upload Photos

1,927,039 photos uploaded!

WunderBlog® & News

Nearby

Air Quality

  Air Quality AQ Index Pollutant
Not available.

Snow Depth

Station Depth Elevation

Earthquake Activity

City Distance Mag. Time & Date
Minimum magnitude displayed is 2.5.

Coastal Water Temperatures

Place Temperature

Stations

Nearby Weather Stations

Station Location Temp. Windchill Dew Point Humidity Wind Precip. Elev Updated Type
                   

Watches & Warnings

There are currently no watches in effect.